BIKF/KEF METAR and TAF weather

Enter ICAO airport designator
Station Type Date Time Source
BIKF METAR 2021/08/02 02:00 UTC NOAA

BIKF 020200Z 18006KT 9999 SCT010 BKN031 10/10 Q1010


Station Type Date Time Source
BIKF Decoded METAR 2021/08/02 02:00 UTC NOAA

Keflavikurflugvollur, Iceland (BIKF) 63-58N 022-36W 54M
Aug 01, 2021 - 10:00 PM EDT / 2021.08.02 0200 UTC
Wind: from the S (180 degrees) at 7 MPH (6 KT):0
Visibility: greater than 7 mile(s):0
Sky conditions: mostly cloudy
Temperature: 50 F (10 C)
Dew Point: 50 F (10 C)
Relative Humidity: 100%
Pressure (altimeter): 29.83 in. Hg (1010 hPa)
ob: BIKF 020200Z 18006KT 9999 SCT010 BKN031 10/10 Q1010
cycle: 2

Station Type Date Time Source
BIKF TAF 2021/08/02 03:51 UTC NOAA

TAF BIKF 020141Z 0203/0303 20006KT 9000 -DZ SCT008 OVC013 TX12/0212Z TN09/0203Z
TEMPO 0203/0211 2500 DZRA BR BKN005
TEMPO 0300/0303 3000 DZ BR BKN007

Example: see airport list